createdAt,value
2022-10-11T00:01:36.522Z,100.00
2022-10-11T00:04:03.386Z,100.00
2022-10-11T00:06:30.010Z,100.00
2022-10-11T00:08:58.835Z,100.00
2022-10-11T00:11:25.505Z,100.00
2022-10-11T00:13:54.356Z,100.00
2022-10-11T00:16:23.623Z,100.00
2022-10-11T00:18:50.199Z,100.00
2022-10-11T00:21:17.205Z,100.00
2022-10-11T00:23:43.819Z,100.00
2022-10-11T00:26:11.957Z,100.00
2022-10-11T00:28:39.030Z,100.00
2022-10-11T00:31:10.910Z,100.00
2022-10-11T00:33:38.734Z,100.00
2022-10-11T00:36:06.753Z,100.00
2022-10-11T00:38:33.510Z,100.00
2022-10-11T00:41:00.521Z,100.00
2022-10-11T00:43:29.591Z,100.00
2022-10-11T00:45:55.987Z,100.00
2022-10-11T00:48:34.006Z,100.00
2022-10-11T00:51:04.871Z,100.00
2022-10-11T00:53:33.015Z,100.00
2022-10-11T00:56:14.573Z,100.00
2022-10-11T00:58:42.547Z,100.00
2022-10-11T01:01:09.482Z,100.00
2022-10-11T01:03:38.167Z,100.00
2022-10-11T01:06:05.293Z,100.00
2022-10-11T01:08:32.769Z,100.00
2022-10-11T01:10:59.345Z,100.00
2022-10-11T01:13:31.574Z,99.88
2022-10-11T01:16:15.353Z,100.00
2022-10-11T01:18:59.445Z,100.00
2022-10-11T01:21:52.070Z,100.00
2022-10-11T01:24:43.807Z,100.00
2022-10-11T01:27:34.904Z,100.00
2022-10-11T01:30:19.486Z,100.00
2022-10-11T01:33:06.395Z,100.00
2022-10-11T01:35:51.787Z,100.00
2022-10-11T01:38:38.547Z,100.00
2022-10-11T01:41:21.157Z,100.00
2022-10-11T01:43:49.927Z,100.00
2022-10-11T01:46:16.938Z,100.00
2022-10-11T01:48:52.671Z,100.00
2022-10-11T01:51:27.945Z,100.00
2022-10-11T01:54:19.187Z,100.00
2022-10-11T01:57:04.026Z,100.00
2022-10-11T02:00:09.914Z,100.00
2022-10-11T02:02:58.339Z,100.00
2022-10-11T02:05:36.870Z,100.00
2022-10-11T02:08:06.222Z,100.00
2022-10-11T02:10:40.305Z,100.00
2022-10-11T02:13:15.264Z,100.00
2022-10-11T02:15:44.278Z,100.00
2022-10-11T02:18:18.316Z,100.00
2022-10-11T02:20:45.906Z,100.00
2022-10-11T02:23:17.794Z,100.00
2022-10-11T02:25:45.703Z,100.00
2022-10-11T02:28:16.883Z,100.00
2022-10-11T02:30:48.234Z,100.00
2022-10-11T02:33:22.575Z,100.00
2022-10-11T02:35:55.102Z,100.00
2022-10-11T02:38:26.227Z,100.00
2022-10-11T02:41:18.977Z,100.00
2022-10-11T02:43:57.337Z,100.00
2022-10-11T02:46:25.182Z,100.00
2022-10-11T02:48:54.423Z,100.00
2022-10-11T02:51:20.984Z,100.00
2022-10-11T02:53:47.578Z,100.00
2022-10-11T02:56:14.083Z,100.00
2022-10-11T02:58:40.576Z,100.00
2022-10-11T03:01:07.681Z,100.00
2022-10-11T03:03:35.157Z,100.00
2022-10-11T03:06:04.704Z,100.00
2022-10-11T03:08:31.662Z,100.00
2022-10-11T03:11:00.714Z,100.00
2022-10-11T03:13:29.642Z,100.00
2022-10-11T03:16:07.288Z,100.00
2022-10-11T03:18:34.071Z,100.00
2022-10-11T03:21:00.716Z,100.00
2022-10-11T03:23:27.692Z,100.00
2022-10-11T03:25:54.216Z,100.00
2022-10-11T03:28:21.635Z,100.00
2022-10-11T03:30:49.373Z,100.00
2022-10-11T03:33:17.497Z,100.00
2022-10-11T03:35:46.121Z,100.00
2022-10-11T03:38:14.741Z,100.00
2022-10-11T03:40:42.619Z,100.00
2022-10-11T03:43:09.304Z,100.00
2022-10-11T03:45:39.059Z,100.00
2022-10-11T03:48:05.990Z,100.00
2022-10-11T03:50:33.005Z,100.00
2022-10-11T03:52:59.483Z,100.00
2022-10-11T03:55:26.090Z,100.00
2022-10-11T03:57:52.935Z,100.00
2022-10-11T04:00:19.641Z,100.00
2022-10-11T04:02:46.083Z,100.00
2022-10-11T04:05:12.797Z,100.00
2022-10-11T04:07:42.538Z,100.00
2022-10-11T04:10:10.235Z,100.00
2022-10-11T04:12:38.329Z,100.00
2022-10-11T04:15:08.136Z,100.00
2022-10-11T04:17:34.842Z,100.00
2022-10-11T04:20:01.745Z,100.00
2022-10-11T04:22:28.289Z,100.00
2022-10-11T04:24:54.749Z,100.00
2022-10-11T04:27:21.466Z,100.00
2022-10-11T04:29:48.114Z,100.00
2022-10-11T04:32:14.755Z,100.00
2022-10-11T04:34:46.654Z,100.00
2022-10-11T04:37:13.788Z,100.00
2022-10-11T04:39:40.281Z,100.00
2022-10-11T04:42:07.200Z,100.00
2022-10-11T04:44:33.691Z,100.00
2022-10-11T04:47:02.668Z,100.00
2022-10-11T04:49:29.919Z,100.00
2022-10-11T04:51:57.025Z,100.00
2022-10-11T04:54:23.902Z,100.00
2022-10-11T04:56:52.749Z,100.00
2022-10-11T04:59:19.288Z,100.00
2022-10-11T05:01:45.950Z,100.00
2022-10-11T05:04:14.819Z,100.00
2022-10-11T05:06:41.503Z,100.00
2022-10-11T05:09:08.147Z,100.00
2022-10-11T05:11:34.928Z,100.00
2022-10-11T05:14:01.596Z,100.00
2022-10-11T05:16:28.343Z,100.00
2022-10-11T05:18:55.261Z,100.00
2022-10-11T05:21:24.852Z,100.00
2022-10-11T05:23:56.225Z,100.00
2022-10-11T05:26:24.467Z,100.00
2022-10-11T05:28:52.800Z,100.00
2022-10-11T05:31:19.509Z,100.00
2022-10-11T05:33:46.526Z,100.00
2022-10-11T05:36:15.696Z,100.00
2022-10-11T05:38:42.286Z,100.00
2022-10-11T05:41:12.036Z,100.00
2022-10-11T05:43:38.976Z,100.00
2022-10-11T05:46:08.351Z,100.00
2022-10-11T05:48:35.088Z,100.00
2022-10-11T05:51:03.599Z,100.00
2022-10-11T05:53:30.629Z,100.00
2022-10-11T05:55:58.007Z,100.00
2022-10-11T05:58:24.491Z,100.00
2022-10-11T06:00:51.098Z,100.00
2022-10-11T06:03:17.708Z,100.00
2022-10-11T06:05:44.296Z,100.00
2022-10-11T06:08:11.408Z,100.00
2022-10-11T06:10:38.708Z,100.00
2022-10-11T06:13:06.124Z,100.00
2022-10-11T06:15:33.499Z,100.00
2022-10-11T06:18:00.137Z,100.00
2022-10-11T06:20:27.076Z,100.00
2022-10-11T06:22:56.769Z,100.00
2022-10-11T06:25:23.670Z,100.00
2022-10-11T06:27:52.624Z,100.00
2022-10-11T06:30:19.301Z,100.00
2022-10-11T06:32:45.886Z,100.00
2022-10-11T06:35:12.435Z,100.00
2022-10-11T06:37:38.994Z,100.00
2022-10-11T06:40:06.576Z,100.00
2022-10-11T06:42:33.029Z,100.00
2022-10-11T06:45:00.278Z,100.00
2022-10-11T06:47:27.126Z,100.00
2022-10-11T06:49:54.033Z,100.00
2022-10-11T06:52:20.950Z,100.00
2022-10-11T06:54:47.478Z,100.00
2022-10-11T06:57:16.523Z,100.00
2022-10-11T06:59:43.541Z,100.00
2022-10-11T07:02:10.708Z,100.00
2022-10-11T07:04:37.727Z,100.00
2022-10-11T07:07:04.713Z,100.00
2022-10-11T07:09:31.757Z,100.00
2022-10-11T07:11:58.660Z,100.00
2022-10-11T07:14:28.088Z,100.00
2022-10-11T07:16:54.626Z,100.00
2022-10-11T07:19:21.438Z,100.00
2022-10-11T07:21:48.492Z,100.00
2022-10-11T07:24:15.322Z,100.00
2022-10-11T07:26:59.670Z,100.00
2022-10-11T07:29:26.255Z,100.00
2022-10-11T07:31:52.757Z,100.00
2022-10-11T07:34:20.679Z,100.00
2022-10-11T07:36:47.263Z,100.00
2022-10-11T07:39:16.388Z,100.00
2022-10-11T07:41:46.162Z,100.00
2022-10-11T07:44:13.120Z,100.00
2022-10-11T07:46:39.595Z,100.00
2022-10-11T07:49:06.187Z,100.00
2022-10-11T07:51:33.317Z,100.00
2022-10-11T07:54:04.715Z,100.00
2022-10-11T07:56:33.854Z,100.00
2022-10-11T07:59:03.664Z,100.00
2022-10-11T08:01:31.304Z,99.99
2022-10-11T08:04:00.165Z,98.99
2022-10-11T08:06:31.591Z,98.83
2022-10-11T08:09:00.037Z,98.44
2022-10-11T08:11:32.891Z,97.70
2022-10-11T08:14:00.120Z,97.37
2022-10-11T08:16:26.742Z,94.61
2022-10-11T08:18:56.791Z,90.99
2022-10-11T08:21:23.763Z,89.26
2022-10-11T08:23:50.743Z,89.58
2022-10-11T08:26:17.373Z,90.33
2022-10-11T08:28:44.023Z,90.47
2022-10-11T08:31:13.527Z,91.01
2022-10-11T08:33:40.501Z,91.47
2022-10-11T08:36:08.919Z,91.35
2022-10-11T08:38:37.292Z,92.89
2022-10-11T08:41:13.724Z,91.61
2022-10-11T08:43:46.263Z,91.03
2022-10-11T08:46:15.461Z,88.74
2022-10-11T08:48:46.159Z,82.57
2022-10-11T08:51:18.122Z,79.52
2022-10-11T08:54:12.720Z,79.21
2022-10-11T08:56:40.757Z,75.82
2022-10-11T08:59:13.211Z,70.36
2022-10-11T09:02:05.041Z,69.74
2022-10-11T09:04:32.476Z,69.10
2022-10-11T09:07:03.860Z,67.19
2022-10-11T09:10:09.748Z,67.07
2022-10-11T09:12:52.855Z,65.18
2022-10-11T09:15:30.846Z,62.29
2022-10-11T09:18:12.815Z,61.07
2022-10-11T09:20:57.043Z,61.07
2022-10-11T09:23:38.940Z,61.92
2022-10-11T09:26:19.092Z,59.98
2022-10-11T09:28:56.147Z,58.51
2022-10-11T09:31:25.750Z,58.60
2022-10-11T09:33:52.638Z,59.19
2022-10-11T09:36:28.968Z,58.87
2022-10-11T09:39:14.716Z,59.84
2022-10-11T09:41:53.508Z,60.59
2022-10-11T09:44:24.459Z,61.79
2022-10-11T09:46:53.976Z,63.08
2022-10-11T09:49:26.151Z,64.67
2022-10-11T09:51:59.155Z,64.99
2022-10-11T09:54:40.318Z,63.59
2022-10-11T09:57:17.889Z,63.51
2022-10-11T09:59:44.299Z,65.63
2022-10-11T10:02:14.315Z,63.69
2022-10-11T10:05:11.925Z,65.93
2022-10-11T10:07:57.336Z,64.42
2022-10-11T10:10:35.140Z,64.78
2022-10-11T10:13:04.455Z,65.93
2022-10-11T10:15:36.235Z,65.20
2022-10-11T10:18:06.059Z,65.17
2022-10-11T10:20:35.480Z,65.33
2022-10-11T10:23:12.866Z,64.29
2022-10-11T10:25:43.493Z,63.55
2022-10-11T10:28:36.768Z,65.77
2022-10-11T10:31:04.867Z,61.44
2022-10-11T10:33:34.291Z,64.09
2022-10-11T10:36:06.974Z,62.58
2022-10-11T10:38:52.394Z,61.92
2022-10-11T10:41:19.538Z,63.71
2022-10-11T10:43:53.601Z,62.06
2022-10-11T10:46:35.302Z,63.16
2022-10-11T10:52:19.730Z,62.65
2022-10-11T10:55:08.066Z,62.88
2022-10-11T10:58:02.365Z,61.01
2022-10-11T11:00:58.810Z,58.34
2022-10-11T11:03:46.629Z,61.33
2022-10-11T11:06:36.635Z,58.23
2022-10-11T11:09:22.715Z,58.90
2022-10-11T11:11:58.413Z,57.58
2022-10-11T11:14:40.402Z,58.02
2022-10-11T11:17:23.969Z,55.48
2022-10-11T11:20:12.922Z,56.00
2022-10-11T11:22:50.458Z,53.64
2022-10-11T11:25:25.921Z,56.70
2022-10-11T11:28:01.399Z,55.54
2022-10-11T11:30:49.775Z,55.42
2022-10-11T11:33:32.412Z,54.92
2022-10-11T11:36:06.015Z,55.41
2022-10-11T11:38:55.487Z,54.66
2022-10-11T11:41:39.148Z,55.61
2022-10-11T11:44:16.251Z,57.16
2022-10-11T11:47:05.766Z,56.96
2022-10-11T11:49:37.941Z,57.45
2022-10-11T11:52:07.179Z,57.48
2022-10-11T11:55:30.867Z,58.31
2022-10-11T11:58:25.161Z,58.91
2022-10-11T12:01:37.393Z,60.49
2022-10-11T12:04:12.090Z,60.42
2022-10-11T12:06:47.908Z,62.33
2022-10-11T12:09:24.871Z,62.82
2022-10-11T12:11:57.510Z,63.45
2022-10-11T12:14:29.343Z,64.29
2022-10-11T12:17:18.489Z,64.40
2022-10-11T12:20:14.676Z,65.86
2022-10-11T12:22:56.958Z,65.72
2022-10-11T12:25:23.889Z,66.46
2022-10-11T12:27:53.361Z,66.67
2022-10-11T12:30:47.120Z,67.14
2022-10-11T12:33:18.023Z,66.85
2022-10-11T12:35:53.953Z,67.38
2022-10-11T12:38:40.235Z,68.42
2022-10-11T12:41:09.722Z,69.78
2022-10-11T12:44:20.446Z,67.82
2022-10-11T12:46:57.595Z,64.93
2022-10-11T12:49:24.825Z,62.89
2022-10-11T12:52:02.380Z,59.27
2022-10-11T12:54:50.106Z,60.79
2022-10-11T12:57:40.467Z,58.34
2022-10-11T13:00:33.751Z,56.52
2022-10-11T13:03:31.122Z,54.32
2022-10-11T13:06:01.719Z,56.53
2022-10-11T13:08:36.286Z,53.95
2022-10-11T13:11:06.248Z,53.34
2022-10-11T13:13:41.467Z,53.87
2022-10-11T13:16:17.246Z,54.57
2022-10-11T13:18:48.313Z,54.90
2022-10-11T13:21:24.151Z,55.93
2022-10-11T13:23:55.819Z,55.72
2022-10-11T13:26:22.725Z,53.63
2022-10-11T13:28:51.195Z,53.26
2022-10-11T13:31:18.145Z,53.77
2022-10-11T13:33:45.875Z,54.54
2022-10-11T13:36:37.060Z,53.78
2022-10-11T13:39:03.794Z,53.42
2022-10-11T13:41:32.039Z,54.03
2022-10-11T13:44:00.204Z,52.90
2022-10-11T13:46:29.543Z,54.50
2022-10-11T13:49:05.455Z,52.82
2022-10-11T13:51:42.364Z,52.80
2022-10-11T13:54:13.499Z,53.34
2022-10-11T13:56:51.428Z,54.05
2022-10-11T13:59:19.810Z,55.34
2022-10-11T14:01:47.352Z,56.39
2022-10-11T14:04:17.804Z,56.78
2022-10-11T14:07:19.374Z,56.91
2022-10-11T14:09:47.113Z,58.01
2022-10-11T14:12:25.851Z,59.25
2022-10-11T14:14:53.022Z,58.91
2022-10-11T14:17:24.798Z,58.34
2022-10-11T14:20:41.794Z,58.19
2022-10-11T14:23:08.851Z,60.24
2022-10-11T14:25:35.419Z,61.96
2022-10-11T14:28:05.777Z,62.41
2022-10-11T14:30:32.480Z,63.00
2022-10-11T14:33:01.645Z,62.40
2022-10-11T14:35:31.023Z,63.27
2022-10-11T14:37:58.277Z,62.85
2022-10-11T14:40:28.522Z,64.19
2022-10-11T14:42:55.267Z,66.17
2022-10-11T14:45:22.208Z,66.96
2022-10-11T14:47:49.678Z,67.71
2022-10-11T14:50:31.388Z,65.68
2022-10-11T14:52:58.388Z,65.36
2022-10-11T14:55:25.358Z,66.18
2022-10-11T14:57:51.912Z,66.71
2022-10-11T15:00:27.492Z,66.03
2022-10-11T15:02:55.013Z,66.32
2022-10-11T15:05:23.476Z,65.50
2022-10-11T15:07:50.067Z,63.57
2022-10-11T15:10:23.361Z,63.28
2022-10-11T15:12:51.367Z,63.22
2022-10-11T15:15:23.122Z,63.08
2022-10-11T15:17:55.889Z,63.13
2022-10-11T15:20:43.414Z,63.01
2022-10-11T15:23:10.388Z,63.62
2022-10-11T15:25:38.236Z,62.89
2022-10-11T15:28:05.598Z,63.51
2022-10-11T15:30:41.307Z,64.03
2022-10-11T15:33:08.761Z,64.05
2022-10-11T15:35:35.264Z,64.14
2022-10-11T15:38:02.213Z,63.92
2022-10-11T15:40:36.181Z,64.03
2022-10-11T15:43:04.490Z,63.93
2022-10-11T15:45:31.619Z,64.22
2022-10-11T15:47:58.770Z,64.04
2022-10-11T15:50:34.996Z,63.86
2022-10-11T15:53:07.778Z,64.43
2022-10-11T15:55:38.086Z,64.90
2022-10-11T15:58:04.734Z,65.70
2022-10-11T16:00:34.496Z,66.30
2022-10-11T16:03:01.157Z,66.48
2022-10-11T16:05:28.975Z,67.12
2022-10-11T16:07:58.266Z,66.69
2022-10-11T16:10:24.753Z,67.53
2022-10-11T16:12:51.366Z,68.04
2022-10-11T16:15:17.952Z,68.53
2022-10-11T16:17:46.591Z,68.56
2022-10-11T16:20:13.946Z,69.23
2022-10-11T16:22:41.098Z,69.51
2022-10-11T16:25:07.962Z,69.59
2022-10-11T16:27:34.846Z,70.23
2022-10-11T16:30:01.454Z,70.73
2022-10-11T16:32:28.294Z,71.47
2022-10-11T16:34:54.864Z,72.30
2022-10-11T16:37:22.150Z,72.65
2022-10-11T16:39:48.738Z,73.05
2022-10-11T16:42:15.614Z,73.56
2022-10-11T16:44:42.518Z,74.19
2022-10-11T16:47:09.305Z,74.62
2022-10-11T16:49:36.185Z,74.90
2022-10-11T16:52:03.926Z,75.48
2022-10-11T16:54:31.233Z,76.15
2022-10-11T16:57:00.560Z,76.72
2022-10-11T16:59:27.479Z,76.90
2022-10-11T17:01:54.033Z,76.96
2022-10-11T17:04:20.966Z,77.57
2022-10-11T17:06:47.573Z,77.78
2022-10-11T17:09:14.534Z,78.36
2022-10-11T17:11:41.146Z,78.36
2022-10-11T17:14:08.269Z,79.08
2022-10-11T17:16:37.388Z,79.46
2022-10-11T17:19:04.477Z,80.00
2022-10-11T17:21:31.048Z,79.95
2022-10-11T17:23:57.740Z,80.57
2022-10-11T17:26:26.496Z,80.95
2022-10-11T17:28:57.593Z,81.76
2022-10-11T17:31:24.902Z,81.90
2022-10-11T17:33:53.478Z,82.31
2022-10-11T17:36:34.559Z,82.61
2022-10-11T17:39:09.476Z,84.19
2022-10-11T17:41:38.788Z,84.33
2022-10-11T17:44:05.756Z,84.68
2022-10-11T17:46:35.749Z,84.87
2022-10-11T17:49:04.873Z,85.19
2022-10-11T17:51:32.130Z,85.27
2022-10-11T17:53:58.891Z,85.34
2022-10-11T17:56:31.362Z,85.46
2022-10-11T17:59:03.161Z,85.46
2022-10-11T18:01:30.070Z,85.90
2022-10-11T18:04:03.182Z,86.23
2022-10-11T18:06:35.067Z,86.45
2022-10-11T18:09:03.669Z,86.69
2022-10-11T18:11:31.151Z,86.62
2022-10-11T18:13:57.893Z,87.02
2022-10-11T18:16:29.268Z,87.06
2022-10-11T18:18:57.492Z,87.16
2022-10-11T18:21:28.774Z,87.30
2022-10-11T18:24:01.971Z,87.95
2022-10-11T18:26:30.784Z,88.37
2022-10-11T18:28:58.137Z,89.08
2022-10-11T18:31:29.251Z,89.33
2022-10-11T18:33:56.336Z,89.81
2022-10-11T18:36:25.707Z,90.16
2022-10-11T18:38:56.181Z,89.99
2022-10-11T18:41:24.975Z,89.62
2022-10-11T18:43:54.260Z,89.89
2022-10-11T18:46:22.423Z,90.24
2022-10-11T18:48:50.268Z,90.32
2022-10-11T18:51:23.852Z,90.33
2022-10-11T18:53:50.998Z,90.48
2022-10-11T18:56:20.767Z,91.11
2022-10-11T18:58:52.834Z,91.14
2022-10-11T19:01:25.500Z,91.37
2022-10-11T19:03:56.564Z,91.45
2022-10-11T19:06:25.804Z,91.89
2022-10-11T19:08:55.745Z,92.24
2022-10-11T19:11:23.795Z,92.68
2022-10-11T19:13:55.416Z,92.78
2022-10-11T19:16:22.011Z,92.34
2022-10-11T19:18:50.110Z,92.28
2022-10-11T19:21:17.022Z,92.15
2022-10-11T19:23:45.452Z,92.44
2022-10-11T19:26:14.956Z,92.77
2022-10-11T19:28:42.024Z,93.11
2022-10-11T19:31:10.988Z,93.91
2022-10-11T19:33:39.827Z,94.22
2022-10-11T19:36:06.897Z,94.19
2022-10-11T19:38:34.969Z,93.79
2022-10-11T19:41:02.251Z,93.59
2022-10-11T19:43:28.779Z,93.27
2022-10-11T19:46:07.559Z,94.03
2022-10-11T19:48:38.090Z,94.30
2022-10-11T19:51:14.151Z,94.35
2022-10-11T19:53:41.586Z,93.95
2022-10-11T19:56:13.362Z,93.62
2022-10-11T19:58:40.712Z,93.28
2022-10-11T20:01:11.959Z,92.88
2022-10-11T20:03:39.425Z,93.11
2022-10-11T20:06:07.864Z,93.54
2022-10-11T20:08:36.375Z,93.38
2022-10-11T20:11:08.093Z,93.26
2022-10-11T20:13:36.163Z,92.76
2022-10-11T20:16:11.164Z,93.31
2022-10-11T20:18:39.298Z,93.32
2022-10-11T20:21:13.663Z,94.05
2022-10-11T20:26:20.785Z,94.39
2022-10-11T20:28:55.711Z,95.16
2022-10-11T20:31:31.600Z,95.71
2022-10-11T20:34:01.799Z,95.81
2022-10-11T20:36:30.047Z,96.50
2022-10-11T20:38:57.366Z,96.83
2022-10-11T20:41:31.170Z,96.63
2022-10-11T20:43:59.449Z,96.69
2022-10-11T20:46:27.872Z,95.89
2022-10-11T20:49:01.180Z,95.74
2022-10-11T20:51:29.006Z,95.12
2022-10-11T20:53:56.404Z,95.12
2022-10-11T20:56:23.486Z,95.24
2022-10-11T20:58:54.893Z,95.83
2022-10-11T21:01:29.100Z,96.38
2022-10-11T21:03:57.739Z,96.63
2022-10-11T21:06:24.733Z,96.68
2022-10-11T21:08:54.748Z,96.48
2022-10-11T21:11:21.240Z,96.56
2022-10-11T21:13:53.382Z,96.27
2022-10-11T21:16:19.950Z,96.20
2022-10-11T21:18:50.299Z,95.79
2022-10-11T21:21:16.860Z,95.38
2022-10-11T21:23:43.323Z,95.47
2022-10-11T21:26:12.275Z,94.66
2022-10-11T21:28:40.348Z,94.88
2022-10-11T21:31:09.704Z,95.59
2022-10-11T21:33:37.425Z,95.70
2022-10-11T21:36:09.803Z,95.84
2022-10-11T21:38:36.915Z,96.87
2022-10-11T21:41:15.780Z,97.48
2022-10-11T21:43:42.474Z,96.93
2022-10-11T21:46:13.802Z,97.17
2022-10-11T21:48:42.984Z,96.68
2022-10-11T21:51:30.548Z,96.50
2022-10-11T21:54:00.278Z,96.41
2022-10-11T21:56:27.482Z,96.21
2022-10-11T21:58:54.145Z,96.41
2022-10-11T22:01:21.139Z,96.19
2022-10-11T22:03:48.335Z,96.37
2022-10-11T22:06:15.569Z,95.90
2022-10-11T22:08:42.980Z,96.09
2022-10-11T22:11:09.871Z,96.17
2022-10-11T22:13:38.872Z,96.60
2022-10-11T22:16:07.261Z,96.96
2022-10-11T22:18:34.618Z,96.79
2022-10-11T22:21:12.611Z,97.64
2022-10-11T22:23:43.909Z,97.48
2022-10-11T22:26:31.496Z,97.96
2022-10-11T22:29:00.084Z,98.14
2022-10-11T22:31:26.774Z,98.39
2022-10-11T22:33:55.501Z,98.75
2022-10-11T22:36:24.133Z,98.89
2022-10-11T22:38:51.749Z,98.90
2022-10-11T22:41:18.360Z,98.41
2022-10-11T22:43:45.289Z,98.14
2022-10-11T22:46:11.830Z,98.70
2022-10-11T22:48:38.305Z,98.32
2022-10-11T22:51:04.973Z,98.05
2022-10-11T22:53:31.976Z,98.05
2022-10-11T22:55:58.823Z,98.32
2022-10-11T22:58:25.792Z,98.16
2022-10-11T23:00:52.800Z,97.65
2022-10-11T23:03:19.666Z,98.54
2022-10-11T23:05:57.409Z,98.84
2022-10-11T23:08:24.390Z,99.00
2022-10-11T23:10:50.954Z,98.17
2022-10-11T23:13:17.842Z,98.28
2022-10-11T23:15:47.081Z,98.25
2022-10-11T23:18:15.993Z,99.00
2022-10-11T23:20:43.665Z,98.89
2022-10-11T23:23:12.722Z,98.20
2022-10-11T23:25:39.687Z,98.33
2022-10-11T23:28:09.466Z,98.16
2022-10-11T23:30:38.925Z,98.56
2022-10-11T23:33:05.392Z,98.32
2022-10-11T23:35:34.136Z,97.98
2022-10-11T23:38:00.574Z,97.66
2022-10-11T23:40:27.192Z,97.40
2022-10-11T23:42:54.012Z,97.71
2022-10-11T23:45:20.863Z,97.84
2022-10-11T23:47:47.902Z,98.01
2022-10-11T23:50:15.063Z,97.90
2022-10-11T23:52:42.131Z,97.80
2022-10-11T23:55:09.303Z,98.38
2022-10-11T23:57:36.530Z,98.05
